Time;durP1;ratioP1;P1;durP2;ratioP2;P2;SDS_P1;SDS_P2;PMS_P1;PMS_P2;Temp;Humidity;BMP_temperature;BMP_pressure;BME280_temperature;BME280_humidity;BME280_pressure;Samples;Min_cycle;Max_cycle;Signal;HPM_P1;HPM_P2
2021/10/14 00:01:18;;;;;;;6.40;4.15;;;9.50;99.90;;;;;;5074287;28;20253;-56
2021/10/14 00:03:45;;;;;;;5.63;3.97;;;9.50;99.90;;;;;;5073136;28;20217;-56
2021/10/14 00:06:12;;;;;;;6.28;4.05;;;9.50;99.90;;;;;;5073162;28;20200;-55
2021/10/14 00:08:39;;;;;;;7.35;4.68;;;9.50;99.90;;;;;;5073142;28;20231;-56
2021/10/14 00:11:08;;;;;;;7.43;3.90;;;9.50;99.90;;;;;;5073236;28;20499;-56
2021/10/14 00:13:35;;;;;;;5.50;3.70;;;9.50;99.90;;;;;;5072987;28;20229;-56
2021/10/14 00:16:02;;;;;;;5.57;4.38;;;9.50;99.90;;;;;;5072835;28;20246;-56
2021/10/14 00:18:29;;;;;;;4.80;4.30;;;9.50;99.90;;;;;;5073134;28;20258;-56
2021/10/14 00:20:56;;;;;;;4.15;3.75;;;9.50;99.90;;;;;;5073046;28;20250;-56
2021/10/14 00:23:23;;;;;;;7.68;4.90;;;9.50;99.90;;;;;;5073297;28;20613;-56
2021/10/14 00:25:50;;;;;;;4.70;4.25;;;9.60;99.90;;;;;;5077129;28;20205;-56
2021/10/14 00:28:19;;;;;;;5.95;4.38;;;9.60;99.90;;;;;;5076892;28;20329;-56
2021/10/14 00:30:46;;;;;;;10.05;5.50;;;9.60;99.90;;;;;;5077046;28;20228;-56
2021/10/14 00:33:13;;;;;;;5.95;4.75;;;9.50;99.90;;;;;;5076835;28;20221;-56
2021/10/14 00:35:40;;;;;;;6.22;4.50;;;9.60;99.90;;;;;;5076916;28;20200;-56
2021/10/14 00:38:06;;;;;;;5.47;4.97;;;9.60;99.90;;;;;;5076869;28;20197;-56
2021/10/14 00:40:34;;;;;;;6.75;4.75;;;9.60;99.90;;;;;;5076900;28;20205;-56
2021/10/14 00:43:01;;;;;;;6.03;4.97;;;9.60;99.90;;;;;;5077112;28;20246;-56
2021/10/14 00:45:30;;;;;;;6.20;4.30;;;9.60;99.90;;;;;;5076626;28;20225;-56
2021/10/14 00:47:57;;;;;;;6.38;5.25;;;9.60;99.90;;;;;;5076447;28;20619;-56
2021/10/14 00:50:24;;;;;;;9.70;5.30;;;9.60;99.90;;;;;;5076415;28;20665;-56
2021/10/14 00:52:52;;;;;;;5.68;5.18;;;9.60;99.90;;;;;;5076528;28;20661;-56
2021/10/14 00:55:20;;;;;;;7.18;5.35;;;9.60;99.90;;;;;;5076206;28;20225;-56
2021/10/14 00:57:48;;;;;;;6.22;5.15;;;9.60;99.90;;;;;;5076540;28;20278;-56
2021/10/14 01:00:16;;;;;;;6.00;5.30;;;9.60;99.90;;;;;;5076218;28;20234;-56
2021/10/14 01:02:44;;;;;;;6.13;5.15;;;9.60;99.90;;;;;;5076161;28;20668;-56
2021/10/14 01:05:12;;;;;;;9.82;5.50;;;9.70;99.90;;;;;;5076009;28;20247;-56
2021/10/14 01:07:39;;;;;;;7.57;5.47;;;9.60;99.90;;;;;;5076384;28;20200;-57
2021/10/14 01:10:06;;;;;;;6.10;5.50;;;9.70;99.90;;;;;;5076014;28;20243;-57
2021/10/14 01:12:35;;;;;;;7.18;6.13;;;9.70;99.90;;;;;;5076284;28;20254;-57
2021/10/14 01:15:15;;;;;;;7.53;6.47;;;9.70;99.90;;;;;;5076370;28;20275;-56
2021/10/14 01:17:42;;;;;;;8.55;5.78;;;9.70;99.90;;;;;;5075872;28;20706;-57
2021/10/14 01:20:12;;;;;;;7.45;6.47;;;9.70;99.90;;;;;;5075810;28;20204;-57
2021/10/14 01:22:39;;;;;;;8.52;7.05;;;9.70;99.90;;;;;;5076122;28;20295;-56
2021/10/14 01:25:08;;;;;;;10.13;6.45;;;9.70;99.90;;;;;;5075979;28;20627;-57
2021/10/14 01:27:35;;;;;;;6.63;5.72;;;9.70;99.90;;;;;;5076158;28;20201;-57
2021/10/14 01:30:02;;;;;;;8.40;6.22;;;9.70;99.90;;;;;;5076087;28;20226;-57
2021/10/14 01:32:29;;;;;;;7.80;6.28;;;9.80;99.90;;;;;;5076415;28;20201;-57
2021/10/14 01:34:56;;;;;;;7.25;5.40;;;9.80;99.90;;;;;;5075129;28;20267;-56
2021/10/14 01:37:24;;;;;;;9.70;6.68;;;9.80;99.90;;;;;;5075207;28;20201;-57
2021/10/14 01:39:51;;;;;;;7.53;6.93;;;9.80;99.90;;;;;;5075494;28;20212;-57
2021/10/14 01:42:18;;;;;;;8.65;7.32;;;9.80;99.90;;;;;;5075424;28;20209;-57
2021/10/14 01:44:45;;;;;;;9.10;7.45;;;9.80;99.90;;;;;;5075215;28;20221;-57
2021/10/14 01:47:12;;;;;;;10.20;7.20;;;9.80;99.90;;;;;;5075408;28;20672;-57
2021/10/14 01:49:39;;;;;;;9.43;7.32;;;9.80;99.90;;;;;;5075747;28;20334;-56
2021/10/14 01:52:06;;;;;;;9.75;8.23;;;9.80;99.90;;;;;;5075771;28;20201;-56
2021/10/14 01:54:34;;;;;;;10.02;7.25;;;9.80;99.90;;;;;;5075947;28;20225;-56
2021/10/14 01:57:01;;;;;;;10.23;7.95;;;9.90;99.90;;;;;;5075398;28;20575;-56
2021/10/14 01:59:28;;;;;;;8.73;7.82;;;9.90;99.90;;;;;;5075556;28;20677;-56
2021/10/14 02:01:55;;;;;;;14.48;7.68;;;9.80;99.90;;;;;;5075586;28;20623;-56
2021/10/14 02:04:22;;;;;;;9.75;8.32;;;9.90;99.90;;;;;;5075238;28;20217;-56
2021/10/14 02:06:49;;;;;;;14.70;9.48;;;9.80;99.90;;;;;;5075625;28;20274;-56
2021/10/14 02:09:16;;;;;;;14.82;8.63;;;9.90;99.90;;;;;;5075273;28;20544;-56
2021/10/14 02:11:44;;;;;;;17.38;9.80;;;9.90;99.90;;;;;;5075574;28;20617;-56
2021/10/14 02:14:11;;;;;;;13.10;8.85;;;9.90;99.90;;;;;;5075336;28;20225;-56
2021/10/14 02:16:38;;;;;;;10.45;8.25;;;9.90;99.90;;;;;;5075389;28;20259;-55
2021/10/14 02:19:05;;;;;;;13.25;10.07;;;9.90;99.90;;;;;;5075344;28;20247;-55
2021/10/14 02:21:32;;;;;;;12.88;9.20;;;9.90;99.90;;;;;;5075296;28;20205;-55
2021/10/14 02:23:59;;;;;;;13.32;9.00;;;10.00;99.90;;;;;;5075006;28;20266;-55
2021/10/14 02:26:26;;;;;;;12.13;9.25;;;10.00;99.90;;;;;;5074920;28;20242;-55
2021/10/14 02:28:55;;;;;;;13.25;9.90;;;10.00;99.90;;;;;;5075392;28;20270;-55
2021/10/14 02:31:22;;;;;;;15.93;10.65;;;10.00;99.90;;;;;;5074963;28;20205;-55
2021/10/14 02:33:49;;;;;;;12.55;10.82;;;10.00;99.90;;;;;;5074417;28;20267;-55
2021/10/14 02:36:16;;;;;;;12.52;9.90;;;10.00;99.90;;;;;;5075425;28;20197;-56
2021/10/14 02:38:42;;;;;;;14.90;11.02;;;10.00;99.90;;;;;;5074539;28;20205;-55
2021/10/14 02:41:09;;;;;;;16.15;9.70;;;10.10;99.90;;;;;;5074505;28;20604;-56
2021/10/14 02:43:36;;;;;;;14.30;10.80;;;10.00;99.90;;;;;;5075181;28;20232;-56
2021/10/14 02:46:05;;;;;;;15.18;10.43;;;10.10;99.90;;;;;;5074798;28;20255;-56
2021/10/14 02:48:32;;;;;;;17.50;11.80;;;10.10;99.90;;;;;;5073504;28;20677;-56
2021/10/14 02:50:59;;;;;;;16.23;11.30;;;10.10;99.90;;;;;;5074519;28;20669;-56
2021/10/14 02:53:26;;;;;;;12.40;9.27;;;10.10;99.90;;;;;;5074327;28;20615;-56
2021/10/14 02:55:53;;;;;;;14.38;11.30;;;10.10;99.90;;;;;;5074538;28;20254;-55
2021/10/14 02:58:20;;;;;;;18.20;12.43;;;10.10;99.90;;;;;;5074650;28;20257;-56
2021/10/14 03:00:47;;;;;;;18.73;11.93;;;10.20;99.90;;;;;;5074663;28;20205;-56
2021/10/14 03:03:15;;;;;;;18.73;12.52;;;10.20;99.90;;;;;;5074957;28;20205;-56
2021/10/14 03:05:42;;;;;;;18.00;12.85;;;10.10;99.90;;;;;;5074203;28;20737;-56
2021/10/14 03:08:09;;;;;;;17.80;13.05;;;10.20;99.90;;;;;;5074359;28;20611;-56
2021/10/14 03:10:36;;;;;;;18.77;13.27;;;10.20;99.90;;;;;;5073748;28;20604;-56
2021/10/14 03:13:03;;;;;;;19.65;14.38;;;10.20;99.90;;;;;;5074014;28;20266;-56
2021/10/14 03:15:30;;;;;;;20.27;15.32;;;10.20;99.90;;;;;;5073887;28;20221;-56
2021/10/14 03:17:57;;;;;;;18.05;13.95;;;10.20;99.90;;;;;;5074137;28;20250;-56
2021/10/14 03:20:25;;;;;;;28.40;16.67;;;10.20;99.90;;;;;;5073468;28;20613;-56
2021/10/14 03:22:52;;;;;;;18.30;15.00;;;10.20;99.90;;;;;;5073513;28;20213;-56
2021/10/14 03:25:19;;;;;;;19.90;14.48;;;10.20;99.90;;;;;;5073484;28;20271;-56
2021/10/14 03:27:46;;;;;;;19.30;16.23;;;10.20;99.90;;;;;;5073442;28;20262;-56
2021/10/14 03:30:13;;;;;;;22.00;16.15;;;10.20;99.90;;;;;;5073724;28;20272;-56
2021/10/14 03:32:40;;;;;;;20.23;15.80;;;10.20;99.90;;;;;;5073618;28;20197;-56
2021/10/14 03:35:08;;;;;;;24.77;17.35;;;10.20;99.90;;;;;;5073205;28;20738;-56
2021/10/14 03:37:36;;;;;;;27.63;17.05;;;10.20;99.90;;;;;;5073612;28;20266;-56
2021/10/14 03:40:04;;;;;;;20.13;16.48;;;10.20;99.90;;;;;;5073572;28;20207;-57
2021/10/14 03:42:31;;;;;;;22.55;16.15;;;10.20;99.90;;;;;;5073468;28;20213;-57
2021/10/14 03:44:58;;;;;;;18.65;14.93;;;10.20;99.90;;;;;;5072974;28;20225;-57
2021/10/14 03:47:25;;;;;;;20.65;15.20;;;10.30;99.90;;;;;;5073457;28;20201;-57
2021/10/14 03:49:52;;;;;;;21.27;17.20;;;10.30;99.90;;;;;;5073409;28;20215;-57
2021/10/14 03:52:19;;;;;;;24.15;16.38;;;10.30;99.90;;;;;;5073053;28;20201;-57
2021/10/14 03:54:48;;;;;;;21.65;16.45;;;10.30;99.90;;;;;;5072824;28;20217;-57
2021/10/14 03:57:15;;;;;;;23.98;16.27;;;10.30;99.90;;;;;;5072957;28;20205;-57
2021/10/14 03:59:42;;;;;;;22.58;17.45;;;10.30;99.90;;;;;;5072639;28;20746;-57
2021/10/14 04:02:09;;;;;;;26.73;17.30;;;10.30;99.90;;;;;;5073272;28;20205;-55
2021/10/14 04:04:36;;;;;;;26.70;17.80;;;10.40;99.90;;;;;;5072871;28;20274;-55
2021/10/14 04:08:43;;;;;;;30.35;19.58;;;10.40;99.90;;;;;;5091287;28;20579;-56
2021/10/14 04:11:10;;;;;;;23.52;18.42;;;10.40;99.90;;;;;;5090756;28;20278;-56
2021/10/14 04:13:37;;;;;;;20.02;16.70;;;10.40;99.90;;;;;;5090601;28;20278;-55
2021/10/14 04:16:05;;;;;;;21.80;16.90;;;10.40;99.90;;;;;;5090470;28;20673;-56
2021/10/14 04:18:33;;;;;;;23.55;18.77;;;10.40;99.90;;;;;;5090481;28;20259;-55
2021/10/14 04:21:00;;;;;;;21.05;17.45;;;10.40;99.90;;;;;;5090419;28;20201;-56
2021/10/14 04:23:27;;;;;;;25.88;18.60;;;10.40;99.90;;;;;;5090604;28;20233;-55
2021/10/14 04:25:55;;;;;;;21.85;16.20;;;10.40;99.90;;;;;;5090527;28;20206;-56
2021/10/14 04:28:22;;;;;;;23.40;17.13;;;10.40;99.90;;;;;;5090660;28;20344;-55
2021/10/14 04:30:49;;;;;;;20.30;15.93;;;10.40;99.90;;;;;;5090938;28;20201;-56
2021/10/14 04:33:16;;;;;;;22.35;16.80;;;10.40;99.90;;;;;;5090619;28;20204;-55
2021/10/14 04:35:43;;;;;;;20.42;17.02;;;10.40;99.90;;;;;;5090522;28;20266;-56
2021/10/14 04:38:10;;;;;;;22.38;15.98;;;10.40;99.90;;;;;;5090659;28;20254;-55
2021/10/14 04:40:37;;;;;;;19.83;16.13;;;10.40;99.90;;;;;;5089955;28;20201;-56
2021/10/14 04:43:06;;;;;;;21.63;15.55;;;10.40;99.90;;;;;;5089966;28;20209;-55
2021/10/14 04:45:33;;;;;;;21.40;15.48;;;10.40;99.90;;;;;;5074199;22;20233;-59
2021/10/14 04:48:00;;;;;;;20.08;15.38;;;10.50;99.90;;;;;;5050783;28;20278;-60
2021/10/14 04:50:27;;;;;;;20.45;16.20;;;10.50;99.90;;;;;;5050707;28;20204;-60
2021/10/14 04:52:54;;;;;;;20.40;16.75;;;10.50;99.90;;;;;;5050772;28;20255;-59
2021/10/14 04:55:21;;;;;;;21.13;16.67;;;10.50;99.90;;;;;;5050159;28;20231;-59
2021/10/14 04:57:48;;;;;;;24.27;17.67;;;10.50;99.90;;;;;;5050130;28;20629;-61
2021/10/14 05:00:17;;;;;;;24.15;16.45;;;10.50;99.90;;;;;;5050848;28;20600;-61
2021/10/14 05:02:44;;;;;;;18.88;14.93;;;10.50;99.90;;;;;;5050180;28;20208;-61
2021/10/14 05:05:11;;;;;;;19.45;16.33;;;10.50;99.90;;;;;;5049895;28;20231;-61
2021/10/14 05:07:38;;;;;;;21.77;16.20;;;10.60;99.90;;;;;;5050330;28;20220;-62
2021/10/14 05:10:05;;;;;;;21.05;16.30;;;10.60;99.90;;;;;;5052445;28;20204;-68
2021/10/14 05:12:32;;;;;;;19.43;16.10;;;10.60;99.90;;;;;;5057332;28;20224;-75
2021/10/14 05:14:59;;;;;;;22.73;16.98;;;10.60;99.90;;;;;;5057126;28;20465;-68
2021/10/14 05:17:28;;;;;;;21.50;15.32;;;10.60;99.90;;;;;;5054358;28;20622;-60
2021/10/14 05:19:55;;;;;;;26.33;17.23;;;10.60;99.90;;;;;;5037697;28;20582;-59
2021/10/14 05:22:22;;;;;;;22.10;17.53;;;10.60;99.90;;;;;;5036602;28;20443;-60
2021/10/14 05:24:49;;;;;;;18.67;16.67;;;10.70;99.90;;;;;;5035889;28;20475;-61
2021/10/14 05:27:16;;;;;;;20.33;16.20;;;10.60;99.90;;;;;;5036604;28;20818;-60
2021/10/14 05:29:43;;;;;;;21.02;17.38;;;10.60;99.90;;;;;;5036282;28;20451;-60
2021/10/14 05:32:10;;;;;;;26.70;18.63;;;10.70;99.90;;;;;;5036023;28;20738;-60
2021/10/14 05:34:38;;;;;;;21.85;17.63;;;10.70;99.90;;;;;;5036554;28;20227;-60
2021/10/14 05:37:05;;;;;;;21.70;18.30;;;10.70;99.90;;;;;;5037016;28;20247;-60
2021/10/14 05:39:32;;;;;;;19.75;16.88;;;10.70;99.90;;;;;;5037772;28;20757;-60
2021/10/14 05:41:59;;;;;;;20.73;17.48;;;10.70;99.90;;;;;;5037655;28;20212;-61
2021/10/14 05:44:26;;;;;;;19.50;17.10;;;10.70;99.90;;;;;;5036058;28;20262;-59
2021/10/14 05:46:53;;;;;;;22.13;16.58;;;10.80;99.90;;;;;;5035963;28;20702;-61
2021/10/14 05:49:20;;;;;;;24.60;18.27;;;10.70;99.90;;;;;;5036058;28;20232;-61
2021/10/14 05:51:49;;;;;;;25.10;19.17;;;10.70;99.90;;;;;;5035904;28;20459;-60
2021/10/14 05:54:16;;;;;;;21.33;17.02;;;10.80;99.90;;;;;;5035605;28;20274;-60
2021/10/14 05:56:42;;;;;;;23.53;18.60;;;10.80;99.90;;;;;;5035933;28;20252;-60
2021/10/14 05:59:09;;;;;;;22.42;18.27;;;10.80;99.90;;;;;;5036288;28;20447;-60
2021/10/14 06:01:36;;;;;;;25.77;18.07;;;10.80;99.90;;;;;;5036485;28;20266;-58
2021/10/14 06:04:04;;;;;;;22.00;17.50;;;10.80;99.90;;;;;;5036060;28;20467;-62
2021/10/14 06:06:31;;;;;;;23.53;18.57;;;10.80;99.90;;;;;;5035758;28;20954;-60
2021/10/14 06:09:00;;;;;;;28.60;19.85;;;10.90;99.90;;;;;;5035406;28;20585;-58
2021/10/14 06:11:27;;;;;;;26.47;18.60;;;10.80;99.90;;;;;;5035955;28;20205;-61
2021/10/14 06:13:54;;;;;;;22.38;18.80;;;10.80;99.90;;;;;;5035574;28;21025;-60
2021/10/14 06:16:21;;;;;;;26.13;19.00;;;10.90;99.90;;;;;;5035850;28;20210;-59
2021/10/14 06:18:48;;;;;;;23.45;18.25;;;10.90;99.90;;;;;;5035356;28;20509;-59
2021/10/14 06:21:14;;;;;;;23.80;18.63;;;10.90;99.90;;;;;;5035816;28;20203;-61
2021/10/14 06:23:42;;;;;;;25.30;19.57;;;11.00;99.90;;;;;;5035710;28;20216;-60
2021/10/14 06:26:10;;;;;;;21.30;17.33;;;11.00;99.90;;;;;;5036055;28;20509;-60
2021/10/14 06:28:37;;;;;;;26.90;19.70;;;11.00;99.90;;;;;;5035497;28;20482;-60
2021/10/14 06:31:04;;;;;;;23.43;18.07;;;11.00;99.90;;;;;;5033723;28;20944;-61
2021/10/14 06:33:32;;;;;;;21.67;17.33;;;11.00;99.90;;;;;;5035273;28;20445;-61
2021/10/14 06:35:58;;;;;;;23.17;17.98;;;11.10;99.90;;;;;;5034812;28;20453;-61
2021/10/14 06:38:25;;;;;;;22.10;17.83;;;11.10;99.90;;;;;;5034859;28;20201;-61
2021/10/14 06:40:53;;;;;;;22.30;17.20;;;11.10;99.90;;;;;;5035237;28;20526;-60
2021/10/14 06:43:21;;;;;;;19.37;17.37;;;11.10;99.90;;;;;;5034466;28;20470;-60
2021/10/14 06:45:48;;;;;;;22.52;17.67;;;11.10;99.90;;;;;;5035380;28;21019;-61
2021/10/14 06:48:15;;;;;;;21.10;16.23;;;11.20;99.90;;;;;;5040307;28;20229;-60
2021/10/14 06:50:42;;;;;;;20.60;16.50;;;11.20;99.90;;;;;;5035172;28;20452;-60
2021/10/14 06:53:10;;;;;;;23.43;16.47;;;11.30;99.90;;;;;;5035162;28;20490;-60
2021/10/14 06:55:37;;;;;;;22.73;16.60;;;11.30;99.90;;;;;;5034414;28;20563;-60
2021/10/14 06:58:04;;;;;;;20.20;15.33;;;11.40;99.90;;;;;;5034551;28;20450;-60
2021/10/14 07:00:33;;;;;;;16.47;14.77;;;11.40;99.90;;;;;;5034586;28;20440;-60
2021/10/14 07:03:00;;;;;;;19.00;14.60;;;11.40;99.90;;;;;;5034664;28;20448;-60
2021/10/14 07:05:27;;;;;;;18.57;14.37;;;11.40;99.90;;;;;;5037075;28;20472;-60
2021/10/14 07:07:54;;;;;;;17.37;13.80;;;11.50;99.90;;;;;;5045899;28;20832;-60
2021/10/14 07:10:23;;;;;;;15.80;14.03;;;11.50;99.90;;;;;;5036186;28;20479;-60
2021/10/14 07:12:50;;;;;;;16.77;13.80;;;11.60;99.90;;;;;;5034369;28;20968;-60
2021/10/14 07:15:17;;;;;;;15.47;12.77;;;11.60;99.90;;;;;;5034234;28;20566;-60
2021/10/14 07:17:46;;;;;;;14.23;12.73;;;11.70;99.90;;;;;;5033811;28;20932;-60
2021/10/14 07:20:13;;;;;;;12.70;11.37;;;11.80;99.90;;;;;;5034244;28;20460;-60
2021/10/14 07:22:40;;;;;;;15.43;12.10;;;11.80;99.90;;;;;;5034135;28;20448;-60
2021/10/14 07:25:07;;;;;;;12.50;11.20;;;11.80;99.90;;;;;;5034277;28;20469;-61
2021/10/14 07:27:34;;;;;;;14.60;12.37;;;11.90;99.90;;;;;;5034823;28;20452;-61
2021/10/14 07:30:01;;;;;;;12.23;11.03;;;11.90;99.90;;;;;;5035792;28;20475;-58
2021/10/14 07:32:28;;;;;;;12.33;11.13;;;11.90;99.90;;;;;;5035221;28;20448;-61
2021/10/14 07:34:57;;;;;;;12.33;11.00;;;12.00;99.90;;;;;;5036853;28;20514;-60
2021/10/14 07:37:24;;;;;;;11.70;10.13;;;12.00;99.90;;;;;;5038158;28;20872;-60
2021/10/14 07:39:51;;;;;;;12.00;10.53;;;12.10;99.90;;;;;;5034119;28;20949;-62
2021/10/14 07:42:18;;;;;;;11.47;10.27;;;12.10;99.90;;;;;;5033817;28;20453;-61
2021/10/14 07:44:45;;;;;;;10.97;9.77;;;12.20;99.90;;;;;;5033932;28;20867;-60
2021/10/14 07:47:12;;;;;;;11.13;10.00;;;12.20;99.90;;;;;;5033760;28;20453;-61
2021/10/14 07:49:39;;;;;;;10.67;9.60;;;12.20;99.90;;;;;;5033583;28;20484;-60
2021/10/14 07:52:07;;;;;;;10.73;9.67;;;12.20;99.90;;;;;;5033656;28;20860;-59
2021/10/14 07:54:34;;;;;;;10.17;9.10;;;12.20;99.90;;;;;;5033364;28;20471;-60
2021/10/14 07:57:02;;;;;;;9.70;7.93;;;12.20;99.90;;;;;;5033734;28;20499;-59
2021/10/14 07:59:29;;;;;;;9.33;8.37;;;12.30;99.90;;;;;;5034280;28;20445;-59
2021/10/14 08:01:56;;;;;;;8.03;7.30;;;12.30;99.90;;;;;;5033410;28;20453;-61
2021/10/14 08:04:23;;;;;;;11.00;7.37;;;12.30;99.90;;;;;;5033835;28;20476;-59
2021/10/14 08:06:50;;;;;;;8.13;7.33;;;12.40;99.90;;;;;;5034164;28;20447;-60
2021/10/14 08:09:18;;;;;;;8.30;7.17;;;12.40;99.90;;;;;;5033371;28;20476;-60
2021/10/14 08:11:45;;;;;;;10.73;7.50;;;12.40;99.90;;;;;;5033240;28;20936;-59
2021/10/14 08:14:12;;;;;;;7.70;6.33;;;12.50;99.90;;;;;;5033847;28;20469;-59
2021/10/14 08:16:40;;;;;;;6.73;6.03;;;12.60;99.90;;;;;;5034171;28;20598;-61
2021/10/14 08:19:07;;;;;;;8.60;7.63;;;12.60;99.90;;;;;;5033542;28;20496;-61
2021/10/14 08:21:34;;;;;;;9.20;7.00;;;12.70;99.90;;;;;;5033520;28;20460;-60
2021/10/14 08:24:01;;;;;;;7.03;6.23;;;12.70;99.90;;;;;;5033542;28;20511;-60
2021/10/14 08:26:29;;;;;;;6.30;5.70;;;12.70;99.90;;;;;;5032939;28;20449;-60
2021/10/14 08:28:56;;;;;;;7.00;6.30;;;12.70;99.90;;;;;;5033342;28;20481;-60
2021/10/14 08:31:24;;;;;;;6.80;6.10;;;12.70;99.90;;;;;;5033109;28;20449;-60
2021/10/14 08:33:52;;;;;;;6.97;6.37;;;12.70;99.90;;;;;;5033274;28;21001;-61
2021/10/14 08:36:19;;;;;;;7.03;6.23;;;12.70;99.90;;;;;;5033735;28;20530;-61
2021/10/14 08:38:47;;;;;;;7.87;7.10;;;12.70;99.90;;;;;;5033557;28;20507;-60
2021/10/14 08:41:18;;;;;;;8.63;6.87;;;12.70;99.90;;;;;;5033135;28;20453;-61
2021/10/14 08:43:47;;;;;;;7.27;6.57;;;12.60;99.90;;;;;;5033279;28;20837;-61
2021/10/14 08:46:14;;;;;;;8.13;7.30;;;12.60;99.90;;;;;;5033237;28;20437;-61
2021/10/14 08:48:42;;;;;;;8.60;7.00;;;12.60;99.90;;;;;;5032938;28;20489;-60
2021/10/14 08:51:09;;;;;;;9.20;8.40;;;12.60;99.90;;;;;;5033070;28;20441;-60
2021/10/14 08:53:37;;;;;;;7.50;6.80;;;12.60;99.90;;;;;;5034003;28;20507;-61
2021/10/14 08:56:04;;;;;;;10.30;8.70;;;12.70;99.90;;;;;;5037455;28;20452;-61
2021/10/14 08:58:32;;;;;;;9.23;8.33;;;12.60;99.90;;;;;;5036753;28;20449;-59
2021/10/14 09:01:17;;;;;;;9.80;8.80;;;12.70;99.90;;;;;;5036995;28;20510;-58
2021/10/14 09:03:48;;;;;;;9.17;8.27;;;12.70;99.90;;;;;;5036754;28;20472;-58
2021/10/14 09:06:16;;;;;;;9.10;8.20;;;12.70;99.90;;;;;;5037207;28;20783;-61
2021/10/14 09:08:44;;;;;;;9.63;8.63;;;12.70;99.90;;;;;;5036720;28;20487;-60
2021/10/14 09:11:14;;;;;;;7.83;7.10;;;12.80;99.90;;;;;;5037010;28;20491;-59
2021/10/14 09:13:47;;;;;;;8.73;7.93;;;12.80;99.90;;;;;;5036077;28;20936;-60
2021/10/14 09:16:37;;;;;;;7.60;6.90;;;12.90;99.90;;;;;;5036304;28;20963;-61
2021/10/14 09:19:13;;;;;;;10.10;8.00;;;12.90;99.90;;;;;;5032603;28;20441;-59
2021/10/14 09:21:42;;;;;;;8.33;7.20;;;12.90;99.90;;;;;;5036129;28;20929;-60
2021/10/14 09:24:33;;;;;;;7.20;6.50;;;13.00;99.90;;;;;;5036292;28;20538;-60
2021/10/14 09:27:01;;;;;;;6.97;6.27;;;13.00;99.90;;;;;;5036000;28;20445;-61
2021/10/14 09:29:29;;;;;;;6.13;5.50;;;13.00;99.90;;;;;;5037046;28;20476;-60
2021/10/14 09:32:00;;;;;;;6.03;5.30;;;13.00;99.90;;;;;;5036960;28;20448;-60
2021/10/14 09:34:36;;;;;;;5.47;4.97;;;13.00;99.90;;;;;;5037432;28;20473;-60
2021/10/14 09:37:05;;;;;;;5.00;4.50;;;13.00;99.90;;;;;;5037339;28;20430;-60
2021/10/14 09:39:32;;;;;;;4.80;4.40;;;13.00;99.90;;;;;;5037426;28;20865;-60
2021/10/14 09:41:59;;;;;;;4.93;4.43;;;13.00;99.90;;;;;;5036934;28;20996;-59
2021/10/14 09:44:27;;;;;;;4.73;4.30;;;13.00;99.90;;;;;;5037127;28;20477;-60
2021/10/14 09:46:56;;;;;;;4.10;3.80;;;13.00;99.90;;;;;;5038056;28;20449;-60
2021/10/14 09:49:29;;;;;;;4.50;4.10;;;13.00;99.90;;;;;;5041284;28;20964;-61
2021/10/14 09:52:00;;;;;;;3.90;3.60;;;12.90;99.90;;;;;;5044095;28;20453;-60
2021/10/14 09:54:27;;;;;;;3.50;3.20;;;13.00;99.90;;;;;;5040899;28;20917;-58
2021/10/14 09:56:55;;;;;;;3.03;2.77;;;13.10;99.90;;;;;;5039653;28;20460;-60
2021/10/14 09:59:22;;;;;;;2.87;2.67;;;13.10;99.90;;;;;;5043087;28;20444;-59
2021/10/14 10:01:51;;;;;;;2.87;2.67;;;13.10;99.90;;;;;;5037544;28;20853;-60
2021/10/14 10:04:24;;;;;;;3.30;3.00;;;13.10;99.90;;;;;;5036074;28;20473;-61
2021/10/14 10:06:54;;;;;;;3.20;2.90;;;13.10;99.90;;;;;;5037024;28;20444;-61
2021/10/14 10:09:22;;;;;;;4.33;2.93;;;13.00;99.90;;;;;;5035710;28;20530;-61
2021/10/14 10:11:52;;;;;;;3.77;3.30;;;13.00;99.90;;;;;;5035484;28;20867;-60
2021/10/14 10:14:22;;;;;;;4.73;4.27;;;13.10;99.90;;;;;;5035245;28;20469;-59
2021/10/14 10:16:56;;;;;;;5.03;4.63;;;13.20;99.90;;;;;;5035459;28;20445;-59
2021/10/14 10:19:44;;;;;;;4.60;4.20;;;13.40;99.90;;;;;;5035062;28;20453;-58
2021/10/14 10:22:50;;;;;;;5.40;4.90;;;13.50;99.90;;;;;;5035246;28;20449;-60
2021/10/14 10:25:37;;;;;;;6.40;5.80;;;13.60;99.90;;;;;;5035030;28;20465;-60
2021/10/14 10:28:06;;;;;;;6.77;5.90;;;13.70;99.90;;;;;;5035294;28;20487;-60
2021/10/14 10:30:36;;;;;;;6.70;5.43;;;13.70;99.90;;;;;;5035059;28;20488;-60
2021/10/14 10:33:05;;;;;;;7.03;6.20;;;13.70;99.90;;;;;;5034877;28;20433;-60
2021/10/14 10:35:40;;;;;;;7.73;6.93;;;13.70;99.90;;;;;;5034684;28;20473;-60
2021/10/14 10:38:16;;;;;;;7.47;6.27;;;13.60;99.90;;;;;;5035139;28;20492;-60
2021/10/14 10:40:45;;;;;;;8.17;6.97;;;13.70;99.90;;;;;;5034929;28;20435;-61
2021/10/14 10:43:15;;;;;;;8.83;7.87;;;13.70;99.90;;;;;;5034585;28;20785;-60
2021/10/14 10:45:49;;;;;;;13.33;7.70;;;13.70;99.90;;;;;;5068182;22;20870;-54
2021/10/14 10:48:16;;;;;;;8.97;7.47;;;13.80;99.90;;;;;;5034080;28;20838;-55
2021/10/14 10:50:54;;;;;;;9.20;7.60;;;13.90;99.90;;;;;;5033856;28;20988;-54
2021/10/14 10:53:35;;;;;;;9.00;7.03;;;14.10;99.90;;;;;;5033985;28;20433;-55
2021/10/14 10:56:03;;;;;;;8.93;7.90;;;14.10;99.90;;;;;;5033884;28;20522;-53
2021/10/14 10:58:51;;;;;;;11.90;8.30;;;14.20;99.90;;;;;;5033826;28;20451;-55
2021/10/14 11:01:19;;;;;;;11.40;8.77;;;14.30;99.90;;;;;;5029198;28;20454;-55
2021/10/14 11:04:00;;;;;;;8.40;7.17;;;14.40;99.90;;;;;;5033571;28;20450;-55
2021/10/14 11:06:29;;;;;;;8.57;7.67;;;14.50;99.90;;;;;;5033513;28;20864;-54
2021/10/14 11:09:02;;;;;;;8.40;6.80;;;14.60;99.90;;;;;;5033764;28;20481;-55
2021/10/14 11:11:31;;;;;;;11.40;8.13;;;14.60;99.90;;;;;;5033676;28;20438;-56
2021/10/14 11:13:58;;;;;;;11.67;8.37;;;14.50;99.90;;;;;;5033356;28;20453;-55
2021/10/14 11:16:27;;;;;;;10.90;7.77;;;14.50;99.90;;;;;;5032746;28;20465;-55
2021/10/14 11:18:56;;;;;;;11.50;9.17;;;14.50;99.90;;;;;;5033472;28;20535;-54
2021/10/14 11:21:25;;;;;;;11.53;9.10;;;14.50;99.90;;;;;;5033635;28;20502;-54
2021/10/14 11:23:54;;;;;;;11.93;8.93;;;14.40;99.90;;;;;;5032917;28;20485;-55
2021/10/14 11:26:29;;;;;;;11.37;9.10;;;14.40;99.90;;;;;;5032687;28;20469;-55
2021/10/14 11:29:00;;;;;;;11.13;8.93;;;14.30;99.90;;;;;;5033367;28;20475;-55
2021/10/14 11:31:30;;;;;;;11.60;9.63;;;14.30;99.90;;;;;;5033178;28;20446;-54
2021/10/14 11:34:05;;;;;;;9.47;8.43;;;14.30;99.90;;;;;;5033776;28;20436;-55
2021/10/14 11:36:32;;;;;;;10.90;8.70;;;14.20;99.90;;;;;;5033270;28;20521;-54
2021/10/14 11:39:01;;;;;;;12.07;9.90;;;14.20;99.90;;;;;;5033095;28;20445;-54
2021/10/14 11:41:30;;;;;;;11.10;9.63;;;14.20;99.90;;;;;;5033190;28;20511;-53
2021/10/14 11:43:58;;;;;;;11.67;9.97;;;14.20;99.90;;;;;;5033373;28;20441;-55
2021/10/14 11:46:27;;;;;;;11.10;8.90;;;14.10;99.90;;;;;;5032890;28;20995;-55
2021/10/14 11:48:57;;;;;;;10.97;9.87;;;14.20;99.90;;;;;;5033296;28;20447;-54
2021/10/14 11:51:24;;;;;;;12.67;9.60;;;14.20;99.90;;;;;;5032985;28;20437;-54
2021/10/14 11:54:00;;;;;;;10.37;9.27;;;14.20;99.90;;;;;;5033324;28;20876;-53
2021/10/14 11:56:29;;;;;;;12.57;9.80;;;14.20;99.90;;;;;;5033162;28;20441;-54
2021/10/14 11:59:02;;;;;;;13.87;10.03;;;14.20;99.90;;;;;;5032790;28;20893;-56
2021/10/14 12:01:31;;;;;;;14.73;10.23;;;14.10;99.90;;;;;;5032836;28;20499;-53
2021/10/14 12:03:59;;;;;;;14.10;11.97;;;13.80;99.90;;;;;;5032767;28;20449;-53
2021/10/14 12:06:27;;;;;;;15.73;12.07;;;13.60;99.90;;;;;;5032817;28;20473;-55
2021/10/14 12:08:54;;;;;;;15.40;11.80;;;13.40;99.90;;;;;;5033089;28;20441;-55
2021/10/14 12:11:22;;;;;;;17.20;13.60;;;13.40;99.90;;;;;;5033103;28;20792;-56
2021/10/14 12:14:03;;;;;;;15.27;12.60;;;13.40;99.90;;;;;;5032869;28;20512;-53
2021/10/14 12:16:32;;;;;;;17.50;12.90;;;13.30;99.90;;;;;;5032622;28;20425;-54
2021/10/14 12:19:14;;;;;;;17.23;13.50;;;13.30;99.90;;;;;;5032891;28;20995;-53
2021/10/14 12:21:43;;;;;;;15.57;12.00;;;13.30;99.90;;;;;;5033764;28;20434;-54
2021/10/14 12:24:13;;;;;;;17.07;13.47;;;13.30;99.90;;;;;;5032623;28;20453;-55
2021/10/14 12:26:43;;;;;;;17.37;14.13;;;13.20;99.90;;;;;;5032631;28;20457;-54
2021/10/14 12:29:23;;;;;;;19.80;14.07;;;13.20;99.90;;;;;;5034427;28;20460;-54
2021/10/14 12:31:51;;;;;;;21.93;14.83;;;13.20;99.90;;;;;;5037095;28;20425;-53
2021/10/14 12:34:18;;;;;;;19.20;13.90;;;13.20;99.90;;;;;;5037011;28;20444;-54
2021/10/14 12:36:47;;;;;;;21.60;16.30;;;13.10;99.90;;;;;;5036892;28;20449;-55
2021/10/14 12:39:21;;;;;;;21.00;16.47;;;13.00;99.90;;;;;;5036978;28;20441;-57
2021/10/14 12:41:53;;;;;;;24.97;17.53;;;13.00;99.90;;;;;;5036505;28;20915;-55
2021/10/14 12:44:24;;;;;;;23.40;17.17;;;12.90;99.90;;;;;;5036567;28;20507;-55
2021/10/14 12:47:01;;;;;;;22.57;16.80;;;12.80;99.90;;;;;;5036951;28;20865;-54